createdAt,value
2018-11-04T00:01:13.730Z,7.30
2018-11-04T00:03:42.792Z,7.40
2018-11-04T00:06:11.562Z,7.40
2018-11-04T00:08:40.261Z,7.40
2018-11-04T00:11:08.964Z,7.40
2018-11-04T00:13:37.683Z,7.40
2018-11-04T00:16:06.524Z,7.40
2018-11-04T00:18:35.286Z,7.40
2018-11-04T00:21:04.029Z,7.40
2018-11-04T00:23:32.725Z,7.40
2018-11-04T00:26:01.458Z,7.40
2018-11-04T00:28:30.185Z,7.40
2018-11-04T00:30:58.941Z,7.30
2018-11-04T00:33:27.799Z,7.40
2018-11-04T00:35:56.508Z,7.30
2018-11-04T00:38:25.242Z,7.40
2018-11-04T00:40:53.957Z,7.40
2018-11-04T00:43:23.073Z,7.40
2018-11-04T00:45:51.784Z,7.50
2018-11-04T00:48:20.627Z,7.50
2018-11-04T00:50:49.303Z,7.40
2018-11-04T00:53:18.208Z,7.40
2018-11-04T00:55:47.951Z,7.40
2018-11-04T00:58:16.832Z,7.40
2018-11-04T01:00:45.554Z,7.40
2018-11-04T01:03:14.237Z,7.40
2018-11-04T01:05:42.971Z,7.40
2018-11-04T01:08:11.705Z,7.40
2018-11-04T01:10:40.473Z,7.40
2018-11-04T01:13:09.194Z,7.30
2018-11-04T01:15:37.921Z,7.40
2018-11-04T01:18:06.666Z,7.40
2018-11-04T01:20:35.391Z,7.40
2018-11-04T01:23:04.126Z,7.50
2018-11-04T01:25:32.851Z,7.50
2018-11-04T01:28:01.588Z,7.50
2018-11-04T01:30:30.355Z,7.50
2018-11-04T01:32:59.018Z,7.50
2018-11-04T01:35:27.816Z,7.50
2018-11-04T01:37:56.442Z,7.50
2018-11-04T01:40:25.186Z,7.50
2018-11-04T01:42:53.908Z,7.50
2018-11-04T01:45:22.614Z,7.50
2018-11-04T01:47:51.304Z,7.50
2018-11-04T01:50:20.086Z,7.50
2018-11-04T01:52:48.792Z,7.50
2018-11-04T01:55:17.578Z,7.50
2018-11-04T01:57:46.342Z,7.60
2018-11-04T02:00:16.604Z,7.60
2018-11-04T02:02:46.510Z,7.50
2018-11-04T02:05:15.648Z,7.50
2018-11-04T02:07:44.722Z,7.50
2018-11-04T02:10:14.568Z,7.60
2018-11-04T02:12:43.310Z,7.60
2018-11-04T02:15:12.923Z,7.60
2018-11-04T02:17:41.646Z,7.60
2018-11-04T02:20:11.771Z,7.60
2018-11-04T02:22:41.079Z,7.70
2018-11-04T02:25:11.139Z,7.70
2018-11-04T02:27:40.159Z,7.70
2018-11-04T02:30:11.541Z,7.70
2018-11-04T02:32:40.481Z,7.70
2018-11-04T02:35:09.421Z,7.70
2018-11-04T02:37:38.189Z,7.70
2018-11-04T02:40:06.930Z,7.70
2018-11-04T02:42:35.784Z,7.70
2018-11-04T02:45:05.189Z,7.60
2018-11-04T02:47:33.935Z,7.70
2018-11-04T02:50:02.659Z,7.70
2018-11-04T02:52:31.413Z,7.70
2018-11-04T02:55:00.148Z,7.70
2018-11-04T02:57:28.978Z,7.70
2018-11-04T02:59:57.701Z,7.70
2018-11-04T03:02:26.663Z,7.70
2018-11-04T03:04:55.389Z,7.70
2018-11-04T03:07:24.121Z,7.70
2018-11-04T03:09:52.864Z,7.70
2018-11-04T03:12:21.881Z,7.70
2018-11-04T03:14:50.614Z,7.70
2018-11-04T03:17:26.216Z,7.70
2018-11-04T03:19:54.936Z,7.70
2018-11-04T03:22:23.662Z,7.70
2018-11-04T03:24:52.506Z,7.80
2018-11-04T03:27:21.200Z,7.80
2018-11-04T03:29:49.954Z,7.70
2018-11-04T03:32:19.131Z,7.80
2018-11-04T03:34:47.873Z,7.70
2018-11-04T03:37:16.650Z,7.70
2018-11-04T03:39:45.428Z,7.70
2018-11-04T03:42:14.151Z,7.80
2018-11-04T03:44:42.880Z,7.80
2018-11-04T03:47:11.628Z,7.80
2018-11-04T03:49:40.390Z,7.80
2018-11-04T03:52:09.085Z,7.80
2018-11-04T03:54:37.859Z,7.80
2018-11-04T03:57:07.077Z,7.80
2018-11-04T03:59:35.981Z,7.90
2018-11-04T04:02:05.333Z,7.90
2018-11-04T04:04:34.055Z,7.90
2018-11-04T04:07:02.782Z,7.90
2018-11-04T04:09:31.492Z,7.90
2018-11-04T04:12:00.206Z,7.90
2018-11-04T04:14:28.967Z,7.90
2018-11-04T04:16:57.698Z,7.90
2018-11-04T04:19:26.589Z,7.90
2018-11-04T04:21:55.313Z,7.90
2018-11-04T04:24:24.654Z,7.90
2018-11-04T04:26:53.358Z,7.90
2018-11-04T04:29:22.083Z,7.90
2018-11-04T04:31:50.814Z,7.90
2018-11-04T04:34:19.548Z,7.90
2018-11-04T04:36:48.270Z,7.90
2018-11-04T04:39:17.351Z,7.90
2018-11-04T04:41:46.081Z,7.90
2018-11-04T04:44:14.815Z,7.90
2018-11-04T04:46:43.541Z,7.90
2018-11-04T04:49:12.813Z,8.00
2018-11-04T04:51:41.549Z,7.90
2018-11-04T04:54:10.363Z,7.90
2018-11-04T04:56:39.083Z,8.00
2018-11-04T04:59:07.843Z,7.90
2018-11-04T05:01:36.562Z,8.00
2018-11-04T05:04:05.259Z,8.00
2018-11-04T05:06:34.011Z,8.00
2018-11-04T05:09:02.757Z,8.00
2018-11-04T05:11:31.651Z,8.00
2018-11-04T05:14:00.399Z,8.00
2018-11-04T05:16:29.098Z,7.90
2018-11-04T05:18:57.811Z,8.00
2018-11-04T05:21:26.569Z,8.00
2018-11-04T05:23:55.297Z,8.00
2018-11-04T05:26:24.028Z,8.00
2018-11-04T05:28:52.761Z,8.00
2018-11-04T05:31:21.550Z,8.00
2018-11-04T05:33:50.274Z,8.00
2018-11-04T05:36:18.993Z,8.00
2018-11-04T05:38:47.730Z,8.00
2018-11-04T05:41:16.580Z,8.00
2018-11-04T05:43:45.323Z,8.10
2018-11-04T05:46:14.036Z,8.00
2018-11-04T05:48:42.745Z,8.10
2018-11-04T05:51:11.560Z,8.10
2018-11-04T05:53:40.986Z,8.10
2018-11-04T05:56:10.374Z,8.10
2018-11-04T05:58:39.075Z,8.10
2018-11-04T06:01:08.055Z,8.10
2018-11-04T06:03:36.773Z,8.10
2018-11-04T06:06:05.545Z,8.10
2018-11-04T06:08:34.270Z,8.20
2018-11-04T06:11:02.979Z,8.20
2018-11-04T06:13:31.737Z,8.20
2018-11-04T06:16:00.476Z,8.20
2018-11-04T06:18:29.311Z,8.20
2018-11-04T06:20:58.030Z,8.20
2018-11-04T06:23:26.759Z,8.20
2018-11-04T06:25:55.499Z,8.20
2018-11-04T06:28:24.261Z,8.20
2018-11-04T06:30:52.979Z,8.30
2018-11-04T06:33:21.711Z,8.20
2018-11-04T06:35:50.395Z,8.20
2018-11-04T06:38:19.109Z,8.20
2018-11-04T06:40:47.844Z,8.30
2018-11-04T06:43:16.697Z,8.20
2018-11-04T06:45:45.417Z,8.30
2018-11-04T06:48:14.128Z,8.30
2018-11-04T06:50:42.875Z,8.20
2018-11-04T06:53:11.619Z,8.30
2018-11-04T06:55:40.382Z,8.30
2018-11-04T06:58:09.111Z,8.30
2018-11-04T07:00:37.842Z,8.30
2018-11-04T07:03:06.558Z,8.30
2018-11-04T07:05:35.336Z,8.30
2018-11-04T07:08:04.090Z,8.30
2018-11-04T07:10:32.843Z,8.30
2018-11-04T07:13:01.572Z,8.30
2018-11-04T07:15:30.307Z,8.30
2018-11-04T07:17:58.998Z,8.30
2018-11-04T07:20:27.765Z,8.30
2018-11-04T07:22:56.456Z,8.30
2018-11-04T07:25:25.224Z,8.30
2018-11-04T07:27:53.880Z,8.40
2018-11-04T07:30:22.656Z,8.40
2018-11-04T07:32:51.386Z,8.40
2018-11-04T07:35:20.128Z,8.30
2018-11-04T07:37:48.849Z,8.40
2018-11-04T07:40:17.703Z,8.30
2018-11-04T07:42:46.444Z,8.30
2018-11-04T07:45:15.183Z,8.30
2018-11-04T07:47:43.964Z,8.40
2018-11-04T07:50:14.207Z,8.40
2018-11-04T07:52:43.875Z,8.40
2018-11-04T07:55:12.663Z,8.40
2018-11-04T07:57:43.184Z,8.40
2018-11-04T08:00:13.846Z,8.40
2018-11-04T08:02:43.050Z,8.40
2018-11-04T08:05:12.338Z,8.50
2018-11-04T08:07:41.505Z,8.50
2018-11-04T08:10:14.104Z,8.50
2018-11-04T08:12:42.872Z,8.50
2018-11-04T08:15:11.893Z,8.50
2018-11-04T08:17:40.984Z,8.50
2018-11-04T08:20:10.431Z,8.60
2018-11-04T08:22:39.574Z,8.60
2018-11-04T08:25:08.309Z,8.60
2018-11-04T08:27:37.070Z,8.60
2018-11-04T08:30:06.958Z,8.60
2018-11-04T08:32:35.726Z,8.70
2018-11-04T08:35:05.044Z,8.70
2018-11-04T08:37:34.001Z,8.70
2018-11-04T08:40:03.150Z,8.70
2018-11-04T08:42:31.799Z,8.70
2018-11-04T08:45:00.504Z,8.70
2018-11-04T08:47:29.226Z,8.70
2018-11-04T08:49:58.090Z,8.70
2018-11-04T08:52:26.850Z,8.80
2018-11-04T08:54:55.546Z,8.80
2018-11-04T08:57:24.392Z,8.80
2018-11-04T08:59:53.153Z,8.80
2018-11-04T09:02:21.864Z,8.90
2018-11-04T09:04:50.590Z,8.90
2018-11-04T09:07:19.644Z,9.00
2018-11-04T09:09:48.371Z,9.00
2018-11-04T09:12:17.273Z,9.00
2018-11-04T09:14:46.124Z,8.90
2018-11-04T09:17:14.840Z,9.00
2018-11-04T09:19:43.618Z,9.00
2018-11-04T09:22:12.457Z,9.10
2018-11-04T09:24:41.137Z,9.10
2018-11-04T09:27:09.870Z,9.10
2018-11-04T09:29:38.590Z,9.10
2018-11-04T09:32:07.338Z,9.10
2018-11-04T09:34:36.087Z,9.20
2018-11-04T09:37:05.125Z,9.20
2018-11-04T09:39:33.933Z,9.30
2018-11-04T09:42:02.665Z,9.40
2018-11-04T09:44:31.688Z,9.40
2018-11-04T09:47:00.419Z,9.40
2018-11-04T09:49:29.175Z,9.40
2018-11-04T09:51:58.046Z,9.40
2018-11-04T09:54:26.758Z,9.40
2018-11-04T09:56:55.514Z,9.50
2018-11-04T09:59:24.236Z,9.50
2018-11-04T10:01:52.983Z,9.50
2018-11-04T10:04:21.738Z,9.50
2018-11-04T10:06:50.500Z,9.50
2018-11-04T10:09:19.247Z,9.60
2018-11-04T10:11:47.970Z,9.60
2018-11-04T10:14:16.772Z,9.50
2018-11-04T10:16:45.483Z,9.50
2018-11-04T10:19:14.300Z,9.60
2018-11-04T10:21:43.150Z,9.50
2018-11-04T10:24:12.142Z,9.60
2018-11-04T10:26:40.891Z,9.60
2018-11-04T10:29:09.600Z,9.60
2018-11-04T10:31:38.319Z,9.60
2018-11-04T10:34:07.088Z,9.60
2018-11-04T10:36:35.866Z,9.60
2018-11-04T10:39:07.342Z,9.60
2018-11-04T10:41:36.090Z,9.60
2018-11-04T10:44:05.053Z,9.60
2018-11-04T10:46:33.822Z,9.60
2018-11-04T10:49:02.619Z,9.60
2018-11-04T10:51:31.411Z,9.60
2018-11-04T10:54:00.142Z,9.70
2018-11-04T10:56:28.944Z,9.70
2018-11-04T10:58:57.735Z,9.70
2018-11-04T11:01:26.578Z,9.70
2018-11-04T11:03:55.298Z,9.70
2018-11-04T11:06:24.039Z,9.70
2018-11-04T11:08:52.770Z,9.70
2018-11-04T11:11:21.571Z,9.70
2018-11-04T11:13:50.390Z,9.70
2018-11-04T11:16:19.143Z,9.70
2018-11-04T11:18:47.863Z,9.70
2018-11-04T11:21:16.712Z,9.80
2018-11-04T11:23:45.396Z,9.80
2018-11-04T11:26:14.209Z,9.80
2018-11-04T11:28:43.150Z,9.80
2018-11-04T11:31:11.991Z,9.80
2018-11-04T11:33:40.815Z,9.90
2018-11-04T11:36:09.543Z,9.80
2018-11-04T11:38:38.256Z,9.90
2018-11-04T11:41:06.996Z,9.90
2018-11-04T11:43:35.825Z,9.90
2018-11-04T11:46:04.606Z,9.90
2018-11-04T11:48:33.357Z,9.90
2018-11-04T11:51:02.119Z,9.90
2018-11-04T11:53:30.897Z,9.90
2018-11-04T11:55:59.621Z,10.00
2018-11-04T11:58:28.367Z,10.00
2018-11-04T12:00:57.155Z,10.00
2018-11-04T12:03:25.932Z,10.00
2018-11-04T12:05:54.720Z,10.00
2018-11-04T12:08:23.689Z,10.10
2018-11-04T12:10:52.428Z,10.00
2018-11-04T12:13:21.211Z,10.00
2018-11-04T12:15:49.969Z,10.00
2018-11-04T12:18:18.747Z,10.00
2018-11-04T12:20:47.485Z,10.00
2018-11-04T12:23:16.377Z,10.00
2018-11-04T12:25:45.183Z,10.00
2018-11-04T12:28:14.067Z,10.10
2018-11-04T12:30:42.787Z,10.10
2018-11-04T12:33:11.815Z,10.10
2018-11-04T12:35:40.568Z,10.10
2018-11-04T12:38:09.413Z,10.10
2018-11-04T12:40:38.180Z,10.10
2018-11-04T12:43:06.931Z,10.10
2018-11-04T12:45:35.895Z,10.10
2018-11-04T12:48:04.736Z,10.10
2018-11-04T12:50:33.486Z,10.20
2018-11-04T12:53:02.235Z,10.10
2018-11-04T12:55:31.021Z,10.20
2018-11-04T12:57:59.779Z,10.20
2018-11-04T13:00:28.587Z,10.20
2018-11-04T13:02:57.399Z,10.20
2018-11-04T13:05:26.191Z,10.20
2018-11-04T13:07:55.885Z,10.20
2018-11-04T13:10:24.622Z,10.30
2018-11-04T13:12:53.380Z,10.20
2018-11-04T13:15:22.152Z,10.20
2018-11-04T13:17:50.916Z,10.20
2018-11-04T13:20:19.670Z,10.20
2018-11-04T13:22:48.412Z,10.20
2018-11-04T13:25:17.207Z,10.20
2018-11-04T13:27:46.033Z,10.20
2018-11-04T13:30:15.044Z,10.20
2018-11-04T13:32:43.802Z,10.20
2018-11-04T13:35:12.610Z,10.20
2018-11-04T13:37:41.328Z,10.20
2018-11-04T13:40:11.101Z,10.20
2018-11-04T13:42:39.978Z,10.30
2018-11-04T13:45:09.084Z,10.20
2018-11-04T13:47:37.978Z,10.20
2018-11-04T13:50:08.802Z,10.20
2018-11-04T13:52:37.534Z,10.30
2018-11-04T13:55:07.117Z,10.20
2018-11-04T13:57:35.956Z,10.20
2018-11-04T14:00:04.951Z,10.30
2018-11-04T14:02:33.755Z,10.30
2018-11-04T14:05:02.569Z,10.30
2018-11-04T14:07:31.303Z,10.30
2018-11-04T14:10:00.105Z,10.30
2018-11-04T14:12:28.874Z,10.30
2018-11-04T14:14:57.629Z,10.30
2018-11-04T14:17:26.461Z,10.30
2018-11-04T14:19:55.221Z,10.30
2018-11-04T14:22:23.990Z,10.30
2018-11-04T14:24:52.752Z,10.30
2018-11-04T14:27:21.506Z,10.30
2018-11-04T14:29:50.262Z,10.30
2018-11-04T14:32:19.070Z,10.30
2018-11-04T14:34:47.849Z,10.30
2018-11-04T14:37:16.639Z,10.30
2018-11-04T14:39:45.477Z,10.30
2018-11-04T14:42:14.500Z,10.30
2018-11-04T14:44:43.865Z,10.30
2018-11-04T14:47:12.768Z,10.30
2018-11-04T14:49:41.729Z,10.30
2018-11-04T14:52:10.504Z,10.30
2018-11-04T14:54:39.230Z,10.30
2018-11-04T14:57:08.010Z,10.30
2018-11-04T14:59:36.801Z,10.30
2018-11-04T15:02:05.551Z,10.30
2018-11-04T15:04:34.280Z,10.30
2018-11-04T15:07:03.015Z,10.30
2018-11-04T15:09:31.791Z,10.30
2018-11-04T15:12:00.500Z,10.30
2018-11-04T15:14:29.278Z,10.30
2018-11-04T15:16:58.750Z,10.30
2018-11-04T15:19:27.516Z,10.30
2018-11-04T15:21:56.307Z,10.30
2018-11-04T15:24:25.160Z,10.30
2018-11-04T15:26:53.885Z,10.30
2018-11-04T15:29:22.589Z,10.30
2018-11-04T15:31:51.397Z,10.30
2018-11-04T15:34:20.182Z,10.30
2018-11-04T15:36:48.852Z,10.30
2018-11-04T15:39:18.257Z,10.30
2018-11-04T15:41:46.992Z,10.30
2018-11-04T15:44:15.770Z,10.30
2018-11-04T15:46:44.510Z,10.30
2018-11-04T15:49:13.320Z,10.30
2018-11-04T15:51:42.034Z,10.30
2018-11-04T15:54:10.778Z,10.30
2018-11-04T15:56:39.541Z,10.30
2018-11-04T15:59:08.572Z,10.30
2018-11-04T16:01:37.367Z,10.30
2018-11-04T16:04:06.112Z,10.30
2018-11-04T16:06:34.857Z,10.30
2018-11-04T16:09:04.429Z,10.40
2018-11-04T16:11:33.166Z,10.40
2018-11-04T16:14:02.028Z,10.40
2018-11-04T16:16:31.065Z,10.30
2018-11-04T16:18:59.890Z,10.40
2018-11-04T16:21:28.636Z,10.40
2018-11-04T16:23:57.382Z,10.40
2018-11-04T16:26:26.113Z,10.40
2018-11-04T16:28:54.825Z,10.40
2018-11-04T16:31:23.636Z,10.40
2018-11-04T16:33:52.392Z,10.40
2018-11-04T16:36:21.122Z,10.40
2018-11-04T16:38:49.900Z,10.40
2018-11-04T16:41:18.876Z,10.40
2018-11-04T16:43:47.697Z,10.50
2018-11-04T16:46:16.427Z,10.50
2018-11-04T16:48:45.174Z,10.40
2018-11-04T16:51:13.941Z,10.50
2018-11-04T16:53:42.695Z,10.40
2018-11-04T16:56:11.512Z,10.50
2018-11-04T16:58:40.274Z,10.50
2018-11-04T17:01:09.022Z,10.50
2018-11-04T17:03:37.774Z,10.50
2018-11-04T17:06:06.573Z,10.50
2018-11-04T17:08:35.347Z,10.50
2018-11-04T17:11:04.229Z,10.50
2018-11-04T17:13:32.981Z,10.50
2018-11-04T17:16:01.707Z,10.50
2018-11-04T17:18:30.436Z,10.50
2018-11-04T17:20:59.177Z,10.50
2018-11-04T17:23:27.907Z,10.50
2018-11-04T17:25:56.657Z,10.50
2018-11-04T17:28:25.420Z,10.60
2018-11-04T17:30:54.213Z,10.50
2018-11-04T17:33:22.955Z,10.60
2018-11-04T17:35:51.697Z,10.60
2018-11-04T17:38:20.472Z,10.60
2018-11-04T17:40:49.189Z,10.60
2018-11-04T17:43:18.067Z,10.60
2018-11-04T17:45:46.937Z,10.60
2018-11-04T17:48:15.736Z,10.60
2018-11-04T17:50:44.591Z,10.60
2018-11-04T17:53:13.361Z,10.60
2018-11-04T17:55:42.075Z,10.60
2018-11-04T17:58:10.820Z,10.60
2018-11-04T18:00:39.555Z,10.60
2018-11-04T18:03:08.346Z,10.60
2018-11-04T18:05:37.091Z,10.60
2018-11-04T18:08:05.909Z,10.60
2018-11-04T18:10:34.616Z,10.60
2018-11-04T18:13:03.409Z,10.60
2018-11-04T18:15:32.130Z,10.60
2018-11-04T18:18:01.132Z,10.60
2018-11-04T18:20:29.858Z,10.60
2018-11-04T18:22:58.616Z,10.60
2018-11-04T18:25:27.348Z,10.60
2018-11-04T18:27:56.122Z,10.60
2018-11-04T18:30:24.825Z,10.60
2018-11-04T18:32:53.622Z,10.70
2018-11-04T18:35:22.390Z,10.70
2018-11-04T18:37:51.136Z,10.70
2018-11-04T18:40:19.961Z,10.70
2018-11-04T18:42:48.749Z,10.60
2018-11-04T18:45:17.898Z,10.70
2018-11-04T18:47:46.838Z,10.70
2018-11-04T18:50:16.405Z,10.70
2018-11-04T18:52:45.587Z,10.70
2018-11-04T18:55:14.265Z,10.70
2018-11-04T18:57:43.870Z,10.70
2018-11-04T19:00:14.265Z,10.70
2018-11-04T19:02:43.416Z,10.70
2018-11-04T19:05:12.271Z,10.70
2018-11-04T19:07:41.010Z,10.70
2018-11-04T19:10:12.355Z,10.70
2018-11-04T19:12:41.395Z,10.70
2018-11-04T19:15:10.315Z,10.80
2018-11-04T19:17:39.164Z,10.70
2018-11-04T19:20:09.598Z,10.80
2018-11-04T19:22:38.807Z,10.70
2018-11-04T19:25:08.834Z,10.70
2018-11-04T19:27:37.662Z,10.70
2018-11-04T19:30:08.113Z,10.70
2018-11-04T19:32:37.039Z,10.70
2018-11-04T19:35:06.818Z,10.70
2018-11-04T19:37:35.558Z,10.70
2018-11-04T19:40:05.500Z,10.70
2018-11-04T19:42:34.348Z,10.80
2018-11-04T19:45:02.988Z,10.70
2018-11-04T19:47:31.760Z,10.70
2018-11-04T19:50:00.593Z,10.70
2018-11-04T19:52:29.391Z,10.70
2018-11-04T19:54:58.272Z,10.80
2018-11-04T19:57:28.499Z,10.70
2018-11-04T19:59:58.217Z,10.70
2018-11-04T20:02:27.702Z,10.80
2018-11-04T20:04:57.474Z,10.70
2018-11-04T20:07:26.750Z,10.70
2018-11-04T20:09:55.529Z,10.80
2018-11-04T20:12:29.680Z,10.80
2018-11-04T20:14:58.394Z,10.80
2018-11-04T20:17:27.170Z,10.80
2018-11-04T20:20:01.560Z,10.80
2018-11-04T20:22:30.133Z,10.80
2018-11-04T20:25:04.398Z,10.80
2018-11-04T20:27:33.172Z,10.80
2018-11-04T20:30:01.930Z,10.80
2018-11-04T20:32:36.107Z,10.80
2018-11-04T20:35:04.891Z,10.80
2018-11-04T20:37:33.630Z,10.80
2018-11-04T20:40:07.742Z,10.80
2018-11-04T20:42:36.470Z,10.80
2018-11-04T20:45:05.406Z,10.80
2018-11-04T20:47:39.324Z,10.80
2018-11-04T20:50:13.463Z,10.80
2018-11-04T20:52:42.187Z,10.80
2018-11-04T20:55:11.158Z,10.80
2018-11-04T20:57:44.152Z,10.80
2018-11-04T21:00:13.792Z,10.80
2018-11-04T21:02:43.394Z,10.80
2018-11-04T21:05:12.188Z,10.80
2018-11-04T21:07:41.033Z,10.80
2018-11-04T21:10:10.535Z,10.80
2018-11-04T21:12:39.473Z,10.80
2018-11-04T21:15:08.217Z,10.80
2018-11-04T21:17:37.951Z,10.80
2018-11-04T21:20:09.215Z,10.80
2018-11-04T21:22:38.001Z,10.80
2018-11-04T21:25:07.096Z,10.80
2018-11-04T21:27:35.879Z,10.80
2018-11-04T21:30:06.849Z,10.80
2018-11-04T21:32:35.799Z,10.80
2018-11-04T21:35:05.663Z,10.80
2018-11-04T21:37:34.470Z,10.80
2018-11-04T21:40:03.233Z,10.80
2018-11-04T21:42:32.148Z,10.80
2018-11-04T21:45:00.736Z,10.80
2018-11-04T21:47:29.479Z,10.80
2018-11-04T21:49:58.212Z,10.80
2018-11-04T21:52:26.942Z,10.80
2018-11-04T21:54:55.712Z,10.80
2018-11-04T21:57:24.449Z,10.80
2018-11-04T21:59:53.178Z,10.80
2018-11-04T22:02:21.943Z,10.80
2018-11-04T22:04:50.809Z,10.80
2018-11-04T22:07:19.560Z,10.80
2018-11-04T22:09:48.398Z,10.80
2018-11-04T22:12:18.228Z,10.80
2018-11-04T22:14:46.956Z,10.80
2018-11-04T22:17:15.758Z,10.80
2018-11-04T22:19:44.490Z,10.80
2018-11-04T22:22:13.203Z,10.90
2018-11-04T22:24:41.930Z,10.90
2018-11-04T22:27:10.716Z,10.90
2018-11-04T22:29:39.458Z,10.80
2018-11-04T22:32:08.218Z,10.80
2018-11-04T22:34:36.922Z,10.80
2018-11-04T22:37:05.754Z,10.80
2018-11-04T22:39:34.473Z,10.80
2018-11-04T22:42:03.202Z,10.80
2018-11-04T22:44:31.978Z,10.80
2018-11-04T22:47:00.702Z,10.80
2018-11-04T22:49:29.455Z,10.80
2018-11-04T22:51:58.178Z,10.80
2018-11-04T22:54:26.915Z,10.80
2018-11-04T22:56:55.719Z,10.80
2018-11-04T22:59:24.729Z,10.80
2018-11-04T23:01:53.572Z,10.80
2018-11-04T23:04:27.763Z,10.80
2018-11-04T23:06:56.489Z,10.90
2018-11-04T23:09:25.226Z,10.90
2018-11-04T23:11:53.963Z,10.80
2018-11-04T23:14:22.690Z,10.90
2018-11-04T23:16:51.466Z,10.90
2018-11-04T23:19:20.228Z,10.90
2018-11-04T23:21:48.983Z,10.90
2018-11-04T23:24:17.796Z,10.90
2018-11-04T23:26:46.603Z,10.90
2018-11-04T23:29:15.381Z,10.90
2018-11-04T23:31:44.129Z,10.90
2018-11-04T23:34:12.835Z,10.90
2018-11-04T23:36:41.606Z,10.80
2018-11-04T23:39:10.935Z,10.90
2018-11-04T23:41:39.911Z,10.90
2018-11-04T23:44:08.627Z,10.90
2018-11-04T23:46:37.395Z,10.90
2018-11-04T23:49:06.369Z,10.90
2018-11-04T23:51:35.131Z,10.90
2018-11-04T23:54:04.092Z,10.90
2018-11-04T23:56:32.822Z,10.90
2018-11-04T23:59:01.589Z,10.90
